Time;durP1;ratioP1;P1;durP2;ratioP2;P2;SDS_P1;SDS_P2;PMS_P1;PMS_P2;Temp;Humidity;BMP_temperature;BMP_pressure;BME280_temperature;BME280_humidity;BME280_pressure;Samples;Min_cycle;Max_cycle;Signal;HPM_P1;HPM_P2
2021/07/18 00:02:24;;;;;;;17.00;15.30;;;;;;;24.48;65.98;98608.30;2250879;79;20908;-81
2021/07/18 00:05:24;;;;;;;21.17;17.42;;;;;;;24.50;65.95;98613.09;2250698;79;20907;-81
2021/07/18 00:08:25;;;;;;;18.70;16.17;;;;;;;24.52;65.87;98611.22;2250657;78;20948;-81
2021/07/18 00:11:25;;;;;;;18.85;16.40;;;;;;;24.56;65.75;98607.94;2250938;78;20976;-81
2021/07/18 00:14:26;;;;;;;23.40;17.48;;;;;;;24.57;65.47;98611.00;2251046;78;21296;-83
2021/07/18 00:17:26;;;;;;;17.23;15.53;;;;;;;24.57;65.40;98606.53;2251040;79;20940;-81
2021/07/18 00:20:27;;;;;;;20.05;15.15;;;;;;;24.56;65.23;98603.93;2250896;79;20935;-81
2021/07/18 00:23:27;;;;;;;18.05;15.68;;;;;;;24.49;65.24;98611.37;2250870;79;20940;-81
2021/07/18 00:26:28;;;;;;;20.45;16.15;;;;;;;24.41;65.33;98614.41;2276652;77;20938;-82
2021/07/18 00:29:28;;;;;;;18.77;16.50;;;;;;;24.38;65.52;98621.22;2283271;78;20887;-81
2021/07/18 00:32:29;;;;;;;20.88;16.75;;;;;;;24.40;65.48;98611.34;2283248;78;20989;-82
2021/07/18 00:35:29;;;;;;;18.37;16.40;;;;;;;24.41;65.38;98619.73;2283108;78;20915;-81
2021/07/18 00:38:30;;;;;;;23.10;15.55;;;;;;;24.41;65.15;98626.41;2283157;78;20906;-81
2021/07/18 00:41:31;;;;;;;20.10;17.25;;;;;;;24.31;64.98;98636.25;2283296;78;20925;-82
2021/07/18 00:44:31;;;;;;;19.92;16.50;;;;;;;24.22;65.20;98629.48;2283368;78;20915;-81
2021/07/18 00:47:31;;;;;;;21.97;14.93;;;;;;;24.20;65.58;98630.02;2283338;78;20914;-82
2021/07/18 00:50:32;;;;;;;22.15;17.77;;;;;;;24.23;65.36;98631.68;2283396;78;20943;-81
2021/07/18 00:53:32;;;;;;;18.73;16.80;;;;;;;24.07;64.81;98637.73;2283294;78;20942;-82
2021/07/18 00:56:33;;;;;;;19.10;16.37;;;;;;;23.86;66.15;98633.84;2283463;78;20914;-81
2021/07/18 00:59:33;;;;;;;19.65;15.72;;;;;;;24.04;66.00;98633.87;2283533;78;20922;-81
2021/07/18 01:02:34;;;;;;;17.37;15.00;;;;;;;24.14;65.55;98632.50;2283833;78;21288;-80
2021/07/18 01:05:34;;;;;;;18.80;16.62;;;;;;;24.17;65.42;98635.97;2283325;78;20949;-81
2021/07/18 01:08:35;;;;;;;24.75;17.30;;;;;;;24.14;65.13;98631.64;2283132;78;20926;-80
2021/07/18 01:11:35;;;;;;;22.10;18.10;;;;;;;23.68;65.00;98641.73;2283082;78;20977;-80
2021/07/18 01:14:36;;;;;;;21.33;16.52;;;;;;;23.23;65.80;98644.52;2283485;78;20918;-81
2021/07/18 01:17:37;;;;;;;22.10;16.17;;;;;;;22.91;66.79;98641.02;2283535;78;20918;-82
2021/07/18 01:20:37;;;;;;;23.98;19.30;;;;;;;23.04;67.90;98640.91;2283601;78;21418;-80
2021/07/18 01:23:39;;;;;;;22.27;18.85;;;;;;;23.11;66.88;98639.25;2283029;78;20879;-80
2021/07/18 01:26:40;;;;;;;21.07;18.12;;;;;;;22.36;67.46;98646.69;2257209;78;21016;-81
2021/07/18 01:29:40;;;;;;;18.57;16.52;;;;;;;21.73;69.04;98660.10;2251295;78;21284;-81
2021/07/18 01:32:42;;;;;;;18.32;16.37;;;;;;;21.59;71.05;98654.38;2251246;78;20983;-80
2021/07/18 01:35:42;;;;;;;22.80;17.75;;;;;;;22.15;71.47;98660.80;2250920;79;20948;-81
2021/07/18 01:38:43;;;;;;;22.02;16.60;;;;;;;22.46;70.17;98671.12;2250983;79;20905;-80
2021/07/18 01:41:43;;;;;;;18.55;15.98;;;;;;;22.68;69.89;98673.84;2251092;78;20967;-81
2021/07/18 01:44:44;;;;;;;19.40;17.37;;;;;;;22.90;69.70;98668.09;2250730;79;21320;-80
2021/07/18 01:47:46;;;;;;;21.62;19.32;;;;;;;22.89;68.52;98674.34;2250993;78;20912;-80
2021/07/18 01:50:46;;;;;;;17.98;16.20;;;;;;;22.45;68.49;98676.05;2250685;79;20999;-81
2021/07/18 01:53:47;;;;;;;18.05;15.35;;;;;;;22.09;69.87;98665.89;2251117;78;21285;-81
2021/07/18 01:56:47;;;;;;;19.73;16.00;;;;;;;22.46;70.58;98663.15;2251037;78;20915;-81
2021/07/18 01:59:48;;;;;;;17.60;15.68;;;;;;;22.82;70.08;98656.89;2251206;78;20912;-81
2021/07/18 02:02:48;;;;;;;19.42;14.50;;;;;;;23.10;69.31;98663.28;2251080;78;20920;-80
2021/07/18 02:05:49;;;;;;;20.17;16.23;;;;;;;23.25;68.62;98662.63;2251341;78;20960;-81
2021/07/18 02:08:50;;;;;;;20.85;16.02;;;;;;;23.34;68.19;98666.70;2251200;79;20920;-81
2021/07/18 02:11:50;;;;;;;17.40;14.80;;;;;;;23.44;67.72;98660.95;2251097;79;21280;-81
2021/07/18 02:14:51;;;;;;;17.85;15.95;;;;;;;23.49;67.45;98657.63;2251042;79;20884;-81
2021/07/18 02:17:51;;;;;;;18.70;15.50;;;;;;;23.56;67.09;98657.39;2251098;78;20999;-81
2021/07/18 02:20:52;;;;;;;16.82;15.13;;;;;;;23.59;66.79;98653.26;2251189;79;20935;-82
2021/07/18 02:23:52;;;;;;;17.30;15.53;;;;;;;23.63;66.50;98653.52;2251242;79;20900;-81
2021/07/18 02:26:53;;;;;;;19.00;15.45;;;;;;;23.67;66.30;98659.11;2250925;77;20908;-81
2021/07/18 02:29:53;;;;;;;18.45;16.48;;;;;;;23.69;66.04;98656.78;2251423;78;21000;-83
2021/07/18 02:32:54;;;;;;;17.73;15.72;;;;;;;23.72;65.85;98653.98;2251081;78;21023;-81
2021/07/18 02:35:54;;;;;;;17.77;15.93;;;;;;;23.70;65.49;98668.30;2250832;79;21011;-81
2021/07/18 02:38:55;;;;;;;18.25;16.45;;;;;;;23.67;65.46;98671.11;2250074;79;20944;-81
2021/07/18 02:41:56;;;;;;;16.70;14.93;;;;;;;23.64;65.63;98677.91;2250951;79;20939;-81
2021/07/18 02:44:57;;;;;;;17.17;14.13;;;;;;;23.68;65.61;98669.70;2250727;78;20876;-81
2021/07/18 02:47:57;;;;;;;18.32;16.35;;;;;;;23.72;65.35;98666.44;2250266;78;20908;-81
2021/07/18 02:50:58;;;;;;;16.70;15.05;;;;;;;23.66;65.18;98679.56;2250631;79;20955;-82
2021/07/18 02:53:58;;;;;;;18.35;16.45;;;;;;;23.70;65.34;98677.63;2250921;78;20939;-82
2021/07/18 02:56:59;;;;;;;16.80;14.98;;;;;;;23.70;65.34;98677.63;2250877;78;20908;-82
2021/07/18 02:59:59;;;;;;;17.90;15.48;;;;;;;23.76;64.96;98683.56;2250347;78;20944;-81
2021/07/18 03:03:00;;;;;;;19.60;16.48;;;;;;;23.71;64.81;98689.55;2251016;79;20912;-81
2021/07/18 03:06:00;;;;;;;17.75;15.95;;;;;;;23.72;65.18;98690.42;2250521;79;20900;-82
2021/07/18 03:09:01;;;;;;;17.87;15.88;;;;;;;23.74;64.64;98680.09;2250672;79;20913;-81
2021/07/18 03:12:01;;;;;;;17.82;15.93;;;;;;;23.61;64.06;98685.56;2250594;78;20987;-81
2021/07/18 03:15:02;;;;;;;20.17;15.32;;;;;;;23.53;64.33;98676.14;2251098;79;20923;-82
2021/07/18 03:18:06;;;;;;;16.17;14.55;;;;;;;23.52;64.50;98673.94;2250616;78;20920;-82
2021/07/18 03:21:05;;;;;;;19.60;16.70;;;;;;;23.54;64.56;98669.88;2250437;76;20956;-82
2021/07/18 03:24:05;;;;;;;18.23;15.55;;;;;;;23.42;64.51;98665.48;2250783;78;20928;-80
2021/07/18 03:27:06;;;;;;;19.42;17.15;;;;;;;23.41;64.83;98675.73;2275492;77;20950;-80
2021/07/18 03:30:06;;;;;;;20.92;17.48;;;;;;;23.28;65.11;98670.49;2282929;78;20953;-82
2021/07/18 03:33:07;;;;;;;20.27;17.30;;;;;;;23.24;65.39;98675.55;2282526;78;21104;-81
2021/07/18 03:36:07;;;;;;;25.43;17.05;;;;;;;23.20;65.70;98685.46;2282353;78;20930;-80
2021/07/18 03:39:08;;;;;;;19.70;16.37;;;;;;;23.28;65.84;98681.14;2282502;78;20906;-80
2021/07/18 03:42:08;;;;;;;20.40;15.72;;;;;;;23.34;65.64;98682.69;2282570;78;20910;-81
2021/07/18 03:45:09;;;;;;;20.30;16.67;;;;;;;23.20;65.97;98685.46;2282859;78;20933;-81
2021/07/18 03:48:09;;;;;;;19.32;16.35;;;;;;;23.28;66.01;98692.27;2282978;78;20914;-81
2021/07/18 03:51:10;;;;;;;19.17;17.10;;;;;;;23.34;66.03;98694.67;2282877;78;21298;-80
2021/07/18 03:54:10;;;;;;;22.02;17.20;;;;;;;23.26;65.96;98692.80;2282830;78;20966;-80
2021/07/18 03:57:11;;;;;;;22.65;17.05;;;;;;;23.15;66.36;98682.13;2282973;78;20906;-81
2021/07/18 04:00:11;;;;;;;17.50;15.65;;;;;;;23.04;66.55;98694.14;2282540;78;20969;-81
2021/07/18 04:03:12;;;;;;;21.87;15.90;;;;;;;22.92;66.87;98691.52;2283218;78;20883;-80
2021/07/18 04:06:12;;;;;;;17.52;15.53;;;;;;;22.80;67.62;98680.91;2283234;78;20949;-81
2021/07/18 04:09:13;;;;;;;19.77;15.65;;;;;;;22.80;67.65;98683.56;2282929;78;20930;-81
2021/07/18 04:12:13;;;;;;;19.77;16.23;;;;;;;22.67;67.85;98673.44;2282783;78;20946;-82
2021/07/18 04:15:14;;;;;;;17.25;15.48;;;;;;;22.53;68.58;98678.81;2282948;78;20902;-81
2021/07/18 04:18:14;;;;;;;16.82;14.30;;;;;;;22.49;69.21;98676.33;2282882;78;20883;-81
2021/07/18 04:21:19;;;;;;;17.00;15.30;;;;;;;22.56;69.21;98681.38;2283035;78;20953;-80
2021/07/18 04:24:17;;;;;;;21.23;15.23;;;;;;;22.34;69.87;98688.88;2282312;78;20990;-80
2021/07/18 04:27:18;;;;;;;19.23;15.70;;;;;;;22.28;70.32;98687.79;2257796;78;20974;-80
2021/07/18 04:30:18;;;;;;;18.30;16.50;;;;;;;22.30;70.46;98687.27;2250501;79;20935;-81
2021/07/18 04:33:19;;;;;;;20.60;17.67;;;;;;;22.18;70.97;98686.80;2250607;78;20932;-82
2021/07/18 04:36:19;;;;;;;22.20;17.87;;;;;;;22.00;72.12;98688.78;2250682;79;20913;-81
2021/07/18 04:39:20;;;;;;;20.43;18.25;;;;;;;21.89;72.54;98688.31;2250628;78;21352;-80
2021/07/18 04:42:20;;;;;;;21.85;19.27;;;;;;;21.79;73.13;98697.53;2250540;78;20984;-81
2021/07/18 04:45:21;;;;;;;22.37;18.50;;;;;;;21.58;73.91;98693.81;2250831;79;20911;-81
2021/07/18 04:48:21;;;;;;;25.57;19.02;;;;;;;21.52;74.20;98700.67;2250661;78;20917;-81
2021/07/18 04:51:22;;;;;;;19.30;17.48;;;;;;;21.60;74.10;98711.89;2250635;78;20971;-80
2021/07/18 04:54:22;;;;;;;19.65;17.57;;;;;;;21.56;74.42;98712.46;2250171;79;20970;-80
2021/07/18 04:57:23;;;;;;;22.62;17.60;;;;;;;21.57;74.74;98711.54;2250693;79;20881;-83
2021/07/18 05:00:24;;;;;;;19.55;17.40;;;;;;;21.55;74.70;98700.56;2250817;79;20905;-81
2021/07/18 05:03:24;;;;;;;20.17;16.75;;;;;;;21.56;75.08;98701.84;2250858;79;21244;-80
2021/07/18 05:06:25;;;;;;;18.87;16.12;;;;;;;21.54;75.39;98705.00;2250707;79;20965;-80
2021/07/18 05:09:27;;;;;;;21.02;16.55;;;;;;;21.64;75.39;98701.57;2250855;79;20944;-79
2021/07/18 05:12:28;;;;;;;17.00;15.50;;;;;;;21.80;75.32;98703.25;2250620;79;20983;-80
2021/07/18 05:15:28;;;;;;;16.57;14.93;;;;;;;22.01;74.96;98701.16;2250723;79;20932;-81
2021/07/18 05:18:29;;;;;;;16.35;14.75;;;;;;;22.17;74.06;98703.68;2250710;79;20912;-79
2021/07/18 05:21:29;;;;;;;15.43;13.90;;;;;;;22.37;73.55;98702.93;2250650;79;20943;-81
2021/07/18 05:24:30;;;;;;;15.95;13.75;;;;;;;22.46;73.09;98701.25;2251381;78;20881;-80
2021/07/18 05:27:31;;;;;;;16.57;14.15;;;;;;;22.65;72.44;98701.44;2281921;77;21312;-79
2021/07/18 05:30:31;;;;;;;15.85;14.25;;;;;;;22.62;71.99;98695.37;2293140;78;20951;-79
2021/07/18 05:33:32;;;;;;;15.28;13.80;;;;;;;22.65;72.15;98702.77;2293053;78;20932;-80
2021/07/18 05:36:32;;;;;;;16.80;13.90;;;;;;;22.84;72.18;98714.45;2293396;78;20947;-80
2021/07/18 05:39:33;;;;;;;15.20;12.03;;;;;;;23.10;72.27;98720.52;2293069;78;20915;-80
2021/07/18 05:42:33;;;;;;;14.95;12.28;;;;;;;23.24;70.73;98727.47;2292625;78;20963;-80
2021/07/18 05:45:35;;;;;;;14.38;12.13;;;;;;;23.11;70.78;98726.24;2292969;78;21253;-80
2021/07/18 05:48:35;;;;;;;13.58;12.05;;;;;;;22.95;70.72;98727.80;2292682;78;20916;-80
2021/07/18 05:51:36;;;;;;;13.45;12.25;;;;;;;22.98;71.46;98730.33;2292909;78;20979;-79
2021/07/18 05:54:38;;;;;;;17.52;13.05;;;;;;;22.96;70.96;98730.39;2292968;78;20892;-79
2021/07/18 05:57:38;;;;;;;14.90;13.30;;;;;;;22.91;71.49;98743.48;2292697;78;20951;-79
2021/07/18 06:00:42;;;;;;;16.95;15.08;;;;;;;22.73;72.25;98740.58;2292614;78;20928;-80
2021/07/18 06:03:42;;;;;;;;;;;;;;;22.66;72.79;98743.08;2295531;78;20892;-80
2021/07/18 06:06:46;;;;;;;18.65;15.45;;;;;;;22.66;72.77;98751.52;2292557;78;20132;-80
2021/07/18 06:09:47;;;;;;;;;;;;;;;22.54;73.41;98758.14;2295316;78;20889;-79
2021/07/18 06:12:50;;;;;;;19.10;14.98;;;;;;;22.51;73.37;98753.80;2292647;78;20116;-80
2021/07/18 06:15:51;;;;;;;16.23;14.58;;;;;;;22.51;73.33;98757.80;2292804;78;21274;-81
2021/07/18 06:18:54;;;;;;;16.87;15.20;;;;;;;22.57;73.80;98754.07;2292959;78;20959;-79
2021/07/18 06:21:55;;;;;;;16.85;15.13;;;;;;;;;;2292914;78;21031;-79
2021/07/18 06:24:55;;;;;;;19.15;14.35;;;;;;;22.69;73.36;98755.39;2292671;77;20900;-79
2021/07/18 06:27:56;;;;;;;18.70;14.47;;;;;;;22.67;73.40;98747.47;2292497;78;20956;-79
2021/07/18 06:30:56;;;;;;;16.12;14.60;;;;;;;22.55;73.19;98757.25;2292824;78;20900;-79
2021/07/18 06:33:57;;;;;;;15.25;13.83;;;;;;;22.50;74.08;98761.84;2292812;78;20939;-81
2021/07/18 06:36:58;;;;;;;16.97;13.43;;;;;;;22.60;73.67;98756.61;2292856;78;20909;-81
2021/07/18 06:39:58;;;;;;;18.23;13.25;;;;;;;22.62;73.18;98762.74;2292788;78;21015;-79
2021/07/18 06:42:59;;;;;;;13.90;12.55;;;;;;;22.41;73.58;98763.05;2292896;78;20948;-80
2021/07/18 06:45:59;;;;;;;15.98;13.60;;;;;;;22.43;73.54;98760.34;2292643;78;20905;-80
2021/07/18 06:49:00;;;;;;;16.15;13.53;;;;;;;22.59;73.18;98754.88;2292764;78;20904;-79
2021/07/18 06:52:00;;;;;;;15.88;13.72;;;;;;;22.68;72.84;98753.66;2292724;78;20936;-79
2021/07/18 06:55:00;;;;;;;17.48;14.58;;;;;;;22.76;73.21;98764.88;2292948;78;20919;-79
2021/07/18 06:58:01;;;;;;;18.85;14.45;;;;;;;22.79;73.02;98762.09;2292700;78;20904;-80
2021/07/18 07:01:01;;;;;;;16.32;13.95;;;;;;;22.77;72.79;98759.49;2292625;78;20901;-80
2021/07/18 07:04:02;;;;;;;15.98;14.30;;;;;;;22.88;72.86;98753.78;2292662;78;20900;-79
2021/07/18 07:07:02;;;;;;;15.55;14.05;;;;;;;23.00;72.73;98757.75;2292640;78;21264;-79
2021/07/18 07:10:03;;;;;;;16.95;15.05;;;;;;;23.00;72.60;98763.94;2292300;78;21034;-80
2021/07/18 07:13:04;;;;;;;19.23;15.30;;;;;;;23.03;72.49;98773.14;2292687;78;20936;-79
2021/07/18 07:16:04;;;;;;;18.92;16.73;;;;;;;23.05;72.38;98778.41;2292714;78;20904;-80
2021/07/18 07:19:04;;;;;;;22.32;17.12;;;;;;;22.96;72.34;98774.77;2292674;78;20948;-80
2021/07/18 07:22:05;;;;;;;19.02;16.42;;;;;;;23.00;72.36;98785.70;2292638;78;20951;-79
2021/07/18 07:25:06;;;;;;;19.50;17.50;;;;;;;22.99;72.51;98779.98;2292830;78;20947;-80
2021/07/18 07:28:06;;;;;;;24.82;18.75;;;;;;;23.18;72.22;98783.64;2292123;78;20955;-80
2021/07/18 07:31:07;;;;;;;21.95;18.92;;;;;;;23.36;71.92;98786.02;2292615;78;20932;-80
2021/07/18 07:34:07;;;;;;;27.73;19.05;;;;;;;23.53;71.25;98794.22;2292708;78;20900;-79
2021/07/18 07:37:08;;;;;;;23.30;19.73;;;;;;;23.78;70.65;98790.96;2292526;78;20921;-78
2021/07/18 07:40:08;;;;;;;24.95;19.75;;;;;;;24.06;69.07;98791.98;2292667;78;20888;-79
2021/07/18 07:43:09;;;;;;;24.02;20.12;;;;;;;24.34;68.36;98793.02;2292540;78;20917;-80
2021/07/18 07:46:10;;;;;;;26.00;20.45;;;;;;;24.53;67.21;98785.05;2292577;78;20865;-80
2021/07/18 07:49:10;;;;;;;28.98;21.37;;;;;;;24.68;66.90;98776.81;2292467;78;20900;-80
2021/07/18 07:52:11;;;;;;;26.93;22.25;;;;;;;24.88;66.52;98781.22;2292668;78;20948;-80
2021/07/18 07:55:11;;;;;;;25.08;21.77;;;;;;;25.12;66.02;98777.88;2292480;78;20936;-80
2021/07/18 07:58:12;;;;;;;29.90;23.85;;;;;;;25.22;65.20;98776.53;2292475;78;20893;-79
2021/07/18 08:01:12;;;;;;;29.72;23.57;;;;;;;25.24;64.33;98787.53;2292314;78;20912;-79
2021/07/18 08:04:13;;;;;;;31.65;24.90;;;;;;;25.02;64.64;98786.33;2292466;78;20900;-79
2021/07/18 08:07:13;;;;;;;32.45;25.62;;;;;;;24.88;64.77;98787.42;2291985;77;20967;-79
2021/07/18 08:10:14;;;;;;;36.50;27.27;;;;;;;25.00;64.67;98783.34;2292600;78;21261;-80
2021/07/18 08:13:14;;;;;;;32.67;27.20;;;;;;;25.25;64.05;98792.41;2292267;78;20950;-80
2021/07/18 08:16:15;;;;;;;30.00;25.40;;;;;;;25.52;63.08;98792.39;2292635;78;20935;-78
2021/07/18 08:19:15;;;;;;;30.30;25.00;;;;;;;26.00;62.29;98799.77;2292359;78;20912;-79
2021/07/18 08:22:16;;;;;;;29.60;25.52;;;;;;;26.41;60.33;98791.45;2292666;78;20917;-79
2021/07/18 08:25:17;;;;;;;32.83;25.85;;;;;;;26.53;60.01;98781.89;2292343;78;20919;-80
2021/07/18 08:28:17;;;;;;;30.55;25.20;;;;;;;26.47;59.67;98780.41;2284587;78;20957;-80
2021/07/18 08:31:18;;;;;;;33.25;26.25;;;;;;;26.31;60.43;98789.70;2282321;78;20965;-80
2021/07/18 08:34:18;;;;;;;34.65;25.97;;;;;;;26.30;61.14;98781.28;2282600;78;20953;-79
2021/07/18 08:37:19;;;;;;;31.82;25.25;;;;;;;26.39;60.73;98781.30;2282640;78;20945;-81
2021/07/18 08:40:19;;;;;;;32.35;25.20;;;;;;;26.33;60.03;98792.33;2282642;78;21274;-78
2021/07/18 08:43:20;;;;;;;32.88;24.82;;;;;;;26.01;60.84;98780.61;2281854;78;20945;-78
2021/07/18 08:46:20;;;;;;;27.50;21.70;;;;;;;26.18;61.18;98783.27;2282253;78;20898;-78
2021/07/18 08:49:21;;;;;;;24.40;20.35;;;;;;;26.24;60.28;98780.27;2282214;78;21332;-78
2021/07/18 08:52:21;;;;;;;19.45;16.70;;;;;;;26.40;60.51;98775.00;2282119;78;20937;-79
2021/07/18 08:55:22;;;;;;;18.50;14.95;;;;;;;26.51;59.29;98779.77;2282137;78;20918;-78
2021/07/18 08:58:23;;;;;;;19.70;13.30;;;;;;;26.36;59.29;98767.22;2281634;78;20953;-78
2021/07/18 09:01:24;;;;;;;16.77;12.95;;;;;;;26.16;59.04;98773.59;2281916;78;20895;-77
2021/07/18 09:04:24;;;;;;;19.67;14.65;;;;;;;26.21;59.65;98777.75;2281940;78;20879;-78
2021/07/18 09:07:24;;;;;;;14.13;12.68;;;;;;;26.28;59.02;98770.27;2282177;78;20941;-78
2021/07/18 09:10:25;;;;;;;16.80;12.03;;;;;;;26.33;59.21;98770.45;2282344;78;21360;-78
2021/07/18 09:13:25;;;;;;;14.18;11.48;;;;;;;26.47;57.13;98777.73;2282494;78;20974;-78
2021/07/18 09:16:26;;;;;;;18.70;11.22;;;;;;;26.52;57.55;98777.02;2282728;78;20895;-78
2021/07/18 09:19:27;;;;;;;12.95;10.75;;;;;;;26.44;58.00;98780.58;2282212;78;20963;-79
2021/07/18 09:22:27;;;;;;;13.70;10.85;;;;;;;26.54;57.31;98765.75;2282263;78;20906;-78
2021/07/18 09:25:28;;;;;;;15.45;11.35;;;;;;;26.65;57.31;98776.73;2282496;78;20875;-79
2021/07/18 09:28:28;;;;;;;15.30;11.03;;;;;;;26.73;56.97;98774.11;2258606;78;20952;-80
2021/07/18 09:31:29;;;;;;;15.68;11.00;;;;;;;26.82;56.08;98761.09;2250523;78;20954;-78
2021/07/18 09:34:29;;;;;;;13.70;11.10;;;;;;;26.88;55.96;98760.77;2250327;79;20948;-79
2021/07/18 09:37:30;;;;;;;14.15;10.70;;;;;;;26.91;56.28;98767.77;2250344;78;21245;-79
2021/07/18 09:40:30;;;;;;;16.80;11.25;;;;;;;26.83;56.10;98762.81;2250175;79;20916;-80
2021/07/18 09:43:31;;;;;;;16.20;10.98;;;;;;;26.98;56.92;98762.50;2249997;79;20972;-79
2021/07/18 09:46:36;;;;;;;15.88;11.10;;;;;;;27.27;55.44;98764.86;2250084;78;20901;-79
2021/07/18 09:49:36;;;;;;;13.32;10.68;;;;;;;27.54;55.81;98770.44;2250180;79;21004;-78
2021/07/18 09:52:37;;;;;;;13.95;10.72;;;;;;;27.53;53.88;98774.94;2249972;78;21359;-79
2021/07/18 09:55:37;;;;;;;15.93;10.35;;;;;;;27.35;54.67;98767.10;2250387;78;20956;-79
2021/07/18 09:58:38;;;;;;;13.05;10.85;;;;;;;27.36;55.00;98758.97;2250074;79;20920;-78
2021/07/18 10:01:38;;;;;;;16.87;11.03;;;;;;;27.40;54.30;98762.34;2250086;78;20912;-79
2021/07/18 10:04:39;;;;;;;13.13;10.72;;;;;;;27.25;54.42;98765.42;2250286;79;20928;-79
2021/07/18 10:07:39;;;;;;;11.57;10.38;;;;;;;27.03;54.20;98763.10;2250190;79;21323;-79
2021/07/18 10:10:40;;;;;;;12.30;11.05;;;;;;;27.09;54.32;98762.75;2250152;78;20935;-79
2021/07/18 10:13:41;;;;;;;16.05;10.80;;;;;;;27.63;53.48;98753.84;2249671;79;20991;-78
2021/07/18 10:16:41;;;;;;;19.32;11.25;;;;;;;28.02;53.21;98749.77;2250025;79;20908;-77
2021/07/18 10:19:42;;;;;;;12.68;11.38;;;;;;;28.07;52.84;98743.17;2250079;79;20955;-79
2021/07/18 10:22:42;;;;;;;13.00;10.85;;;;;;;27.83;53.48;98752.22;2249989;79;20981;-79
2021/07/18 10:25:43;;;;;;;13.22;11.03;;;;;;;27.52;53.73;98754.45;2250323;78;21260;-78
2021/07/18 10:28:43;;;;;;;13.28;10.95;;;;;;;27.37;53.73;98762.52;2281051;77;20916;-78
2021/07/18 10:31:44;;;;;;;11.60;10.45;;;;;;;27.35;54.28;98764.42;2292012;78;21088;-79
2021/07/18 10:34:44;;;;;;;17.57;10.50;;;;;;;27.62;53.52;98764.19;2291787;78;20928;-78
2021/07/18 10:37:45;;;;;;;11.45;10.35;;;;;;;27.78;52.16;98762.84;2291736;78;20959;-79
2021/07/18 10:40:46;;;;;;;11.95;10.40;;;;;;;27.86;52.24;98752.04;2292302;78;21315;-79
2021/07/18 10:43:47;;;;;;;10.20;9.15;;;;;;;28.15;53.01;98747.59;2292193;78;21399;-78
2021/07/18 10:46:47;;;;;;;13.48;8.95;;;;;;;28.13;51.02;98741.93;2291747;78;20941;-79
2021/07/18 10:49:47;;;;;;;9.28;8.30;;;;;;;28.05;51.55;98746.91;2291727;78;20936;-78
2021/07/18 10:52:48;;;;;;;12.47;9.00;;;;;;;28.27;49.70;98747.34;2291958;78;21007;-79
2021/07/18 10:55:48;;;;;;;7.92;6.90;;;;;;;28.36;50.57;98738.72;2292269;78;20912;-79
2021/07/18 10:58:51;;;;;;;12.47;8.18;;;;;;;28.54;49.40;98737.57;2292280;78;21316;-79
2021/07/18 11:01:52;;;;;;;10.95;7.58;;;;;;;28.65;48.98;98734.23;2292165;78;20888;-79
2021/07/18 11:04:52;;;;;;;13.38;7.78;;;;;;;28.79;49.30;98733.36;2292136;78;20923;-80
2021/07/18 11:07:53;;;;;;;12.35;7.22;;;;;;;28.67;48.84;98739.51;2292273;78;20916;-79
2021/07/18 11:10:54;;;;;;;10.43;6.97;;;;;;;28.61;47.87;98743.89;2292403;78;21343;-80
2021/07/18 11:17:11;;;;;;;7.72;6.53;;;;;;;28.66;46.79;98743.16;2240083;79;22297;-79
2021/07/18 11:20:11;;;;;;;9.95;7.25;;;;;;;28.45;47.31;98736.80;2190689;81;20980;-79
2021/07/18 11:23:12;;;;;;;10.05;7.33;;;;;;;28.42;48.19;98731.62;2190987;81;20960;-79
2021/07/18 11:26:13;;;;;;;11.57;7.25;;;;;;;28.59;49.12;98733.25;2190873;81;21335;-79
2021/07/18 11:29:13;;;;;;;9.18;7.15;;;;;;;28.29;48.98;98732.48;2190868;81;20968;-78
2021/07/18 11:32:14;;;;;;;10.90;6.50;;;;;;;28.12;48.50;98726.31;2190658;81;21056;-79
2021/07/18 11:35:14;;;;;;;11.35;7.28;;;;;;;28.26;48.21;98729.99;2190898;81;20991;-80
2021/07/18 11:38:15;;;;;;;8.75;6.70;;;;;;;28.34;48.63;98725.02;2190809;81;21000;-80
2021/07/18 11:41:15;;;;;;;12.60;7.12;;;;;;;28.49;48.08;98720.89;2190725;81;20976;-79
2021/07/18 11:44:16;;;;;;;10.58;7.58;;;;;;;28.28;48.71;98729.42;2190662;81;20961;-79
2021/07/18 11:47:16;;;;;;;10.75;7.25;;;;;;;28.06;48.53;98723.14;2190440;81;21015;-79
2021/07/18 11:50:17;;;;;;;9.70;7.22;;;;;;;28.16;49.08;98721.62;2190632;81;21001;-80
2021/07/18 11:53:17;;;;;;;11.22;7.60;;;;;;;28.30;48.46;98724.82;2190654;81;21060;-79
2021/07/18 11:56:18;;;;;;;10.18;6.70;;;;;;;28.20;48.30;98723.16;2190713;81;21358;-79
2021/07/18 11:59:19;;;;;;;8.78;6.95;;;;;;;28.14;47.89;98719.03;2190730;81;21331;-79
2021/07/18 12:02:21;;;;;;;13.22;6.80;;;;;;;28.13;47.57;98724.48;2190625;81;20984;-79
2021/07/18 12:05:21;;;;;;;9.65;7.10;;;;;;;28.13;47.92;98721.33;2190530;81;20975;-79
2021/07/18 12:08:22;;;;;;;8.33;6.45;;;;;;;28.29;48.04;98715.91;2190607;81;21327;-78
2021/07/18 12:11:22;;;;;;;8.55;7.25;;;;;;;28.67;47.73;98712.66;2190572;81;20952;-78
2021/07/18 12:14:23;;;;;;;7.97;7.17;;;;;;;28.55;46.54;98727.21;2190534;81;20947;-78
2021/07/18 12:17:23;;;;;;;8.05;7.22;;;;;;;28.43;47.08;98723.95;2191098;81;20991;-78
2021/07/18 12:20:24;;;;;;;8.25;7.10;;;;;;;28.38;47.86;98718.02;2191337;81;21011;-78
2021/07/18 12:23:25;;;;;;;8.75;7.17;;;;;;;28.39;48.00;98708.14;2191179;81;21387;-78
2021/07/18 12:26:26;;;;;;;15.53;8.58;;;;;;;28.46;47.53;98709.48;2191057;81;21016;-79
2021/07/18 12:29:26;;;;;;;8.33;7.17;;;;;;;28.68;47.27;98698.27;2190730;81;20988;-79
2021/07/18 12:32:27;;;;;;;9.55;7.08;;;;;;;29.03;47.02;98698.21;2189975;81;20964;-78
2021/07/18 12:35:28;;;;;;;8.48;7.60;;;;;;;29.05;44.81;98704.34;2189995;81;21042;-78
2021/07/18 12:38:28;;;;;;;8.48;6.97;;;;;;;28.98;44.91;98708.40;2190420;81;20916;-78
2021/07/18 12:41:29;;;;;;;10.65;7.67;;;;;;;28.61;45.34;98696.90;2190400;81;20963;-80
2021/07/18 12:44:32;;;;;;;9.15;6.83;;;;;;;28.40;45.95;98705.84;2190231;81;21467;-79
2021/07/18 12:47:32;;;;;;;12.78;7.78;;;;;;;28.32;46.27;98709.00;2145556;83;21078;-78
2021/07/18 12:50:32;;;;;;;12.13;7.42;;;;;;;28.33;46.55;98700.47;2145370;83;20960;-78
2021/07/18 12:53:33;;;;;;;8.60;7.17;;;;;;;28.39;46.48;98711.69;2145425;83;20963;-80
2021/07/18 12:56:33;;;;;;;8.33;7.25;;;;;;;28.42;45.88;98702.09;2145365;83;21026;-78
2021/07/18 12:59:35;;;;;;;13.38;7.05;;;;;;;28.51;45.48;98709.57;2145160;83;21378;-83
2021/07/18 13:02:35;;;;;;;8.20;7.35;;;;;;;28.58;45.58;98694.41;2145266;83;20992;-84
2021/07/18 13:05:36;;;;;;;9.73;6.80;;;;;;;28.73;44.85;98702.38;2145079;83;20916;-81
2021/07/18 13:08:37;;;;;;;7.97;6.87;;;;;;;28.83;44.69;98697.27;2145189;83;21397;-82
2021/07/18 13:11:37;;;;;;;12.18;7.10;;;;;;;28.79;44.90;98696.61;2144792;83;20972;-81
2021/07/18 13:14:39;;;;;;;8.23;7.17;;;;;;;29.04;44.82;98689.19;2144952;83;21021;-80
2021/07/18 13:17:39;;;;;;;10.20;7.47;;;;;;;29.22;43.85;98684.41;2138001;82;21372;-82
2021/07/18 13:20:43;;;;;;;7.83;7.00;;;;;;;29.01;44.70;98670.58;2138258;83;21024;-81
2021/07/18 13:26:59;;;;;;;9.88;6.67;;;;;;;29.10;44.77;98661.05;2293150;77;22510;-79
2021/07/18 13:30:04;;;;;;;7.67;6.92;;;;;;;29.01;44.44;98662.52;2242228;79;20960;-81
2021/07/18 13:33:02;;;;;;;8.80;6.78;;;;;;;28.96;44.60;98663.30;2241881;79;20939;-81
2021/07/18 13:36:03;;;;;;;10.78;7.40;;;;;;;28.92;45.42;98664.95;2241913;79;20972;-80
2021/07/18 13:39:03;;;;;;;8.05;7.28;;;;;;;28.72;45.33;98664.88;2242187;79;20943;-80
2021/07/18 13:42:04;;;;;;;8.60;7.22;;;;;;;29.02;44.84;98651.29;2242120;79;20908;-82
2021/07/18 13:45:04;;;;;;;9.15;6.95;;;;;;;29.22;44.09;98650.82;2242139;79;20959;-82
2021/07/18 13:48:05;;;;;;;8.03;7.25;;;;;;;29.15;43.46;98652.20;2242071;79;21323;-83
2021/07/18 13:51:05;;;;;;;9.50;7.30;;;;;;;29.10;42.95;98653.84;2242248;79;20979;-82
2021/07/18 13:54:06;;;;;;;12.70;7.35;;;;;;;28.96;43.43;98662.45;2242051;79;20955;-78
2021/07/18 13:57:06;;;;;;;9.08;7.22;;;;;;;29.03;44.43;98648.98;2242512;79;21030;-79
2021/07/18 14:00:07;;;;;;;11.35;7.30;;;;;;;28.96;44.48;98642.30;2242448;79;20936;-79
2021/07/18 14:03:10;;;;;;;7.35;6.65;;;;;;;28.78;44.72;98643.85;2242333;79;20984;-80